Cacapava, Brazil
Current Conditions -  °F | °C
As of 1:00 AM on Saturday 22 Nov 2014 (Local Time) from SBSJ Reporting Station
Scattered Clouds Scattered Clouds  
Wind Chill: 73°   Ceiling: Unl
Heat Index: 73°   Visibility: 6mi
Dew Point: 66°   Wind: 6mph
Humidity: 78%   Direction: 40°NE
Pressure: 30"   Gusts: NA
Location:  23.1°S, 45.71°W
Report Text: SBSJ 220300Z 04005KT 9999 SCT025 23/19 Q1016
Loading
Personal Weather Stations






























Interactive Weather Map New forecast layout! Learn more

10-Day Weather Forecast

Advertisements
Track Severe Weather on mobile